createdAt,value
2022-09-05T00:02:33.784Z,5.20
2022-09-05T00:07:57.894Z,5.37
2022-09-05T00:13:07.866Z,3.77
2022-09-05T00:21:29.181Z,4.63
2022-09-05T00:24:25.192Z,4.83
2022-09-05T00:28:36.269Z,5.87
2022-09-05T00:33:52.090Z,7.90
2022-09-05T00:39:05.560Z,5.13
2022-09-05T00:44:14.743Z,4.30
2022-09-05T00:49:24.381Z,8.57
2022-09-05T00:54:40.947Z,5.33
2022-09-05T00:59:43.222Z,6.70
2022-09-05T01:04:53.343Z,5.53
2022-09-05T01:10:04.065Z,6.17
2022-09-05T01:15:15.069Z,5.23
2022-09-05T01:20:26.807Z,6.33
2022-09-05T01:25:38.541Z,6.63
2022-09-05T01:30:49.896Z,7.30
2022-09-05T01:36:04.170Z,5.50
2022-09-05T01:41:18.539Z,5.43
2022-09-05T01:46:25.390Z,3.93
2022-09-05T01:51:37.907Z,4.87
2022-09-05T01:56:48.534Z,6.37
2022-09-05T02:01:59.037Z,4.63
2022-09-05T02:07:22.515Z,3.30
2022-09-05T02:12:19.717Z,4.17
2022-09-05T02:17:50.426Z,7.43
2022-09-05T02:22:40.105Z,3.53
2022-09-05T02:28:04.673Z,5.40
2022-09-05T02:32:58.764Z,3.63
2022-09-05T02:40:32.605Z,5.47
2022-09-05T02:45:17.257Z,3.53
2022-09-05T02:48:29.837Z,6.80
2022-09-05T02:57:40.794Z,3.37
2022-09-05T02:59:09.565Z,6.50
2022-09-05T03:04:05.666Z,6.47
2022-09-05T03:09:17.413Z,5.70
2022-09-05T03:14:28.211Z,6.33
2022-09-05T03:19:46.545Z,3.73
2022-09-05T03:24:55.779Z,5.57
2022-09-05T03:30:02.335Z,5.73
2022-09-05T03:35:12.415Z,4.57
2022-09-05T03:40:22.767Z,5.73
2022-09-05T03:45:37.118Z,3.50
2022-09-05T03:57:08.082Z,5.23
2022-09-05T03:57:23.588Z,5.93
2022-09-05T04:01:28.309Z,3.03
2022-09-05T04:08:28.550Z,5.27
2022-09-05T04:11:31.048Z,2.60
2022-09-05T04:16:43.513Z,5.80
2022-09-05T04:21:54.336Z,4.97
2022-09-05T04:27:04.546Z,2.97
2022-09-05T04:32:18.116Z,3.40
2022-09-05T04:37:26.916Z,5.97
2022-09-05T04:42:38.223Z,6.40
2022-09-05T04:47:50.668Z,2.83
2022-09-05T04:52:59.544Z,4.17
2022-09-05T04:58:10.794Z,4.77
2022-09-05T05:06:20.306Z,2.40
2022-09-05T05:08:38.207Z,4.83
2022-09-05T05:17:58.728Z,5.23
2022-09-05T05:19:05.091Z,2.83
2022-09-05T05:24:07.012Z,4.60
2022-09-05T05:29:19.619Z,4.40
2022-09-05T05:34:29.506Z,4.77
2022-09-05T05:39:40.022Z,4.03
2022-09-05T05:44:54.632Z,5.47
2022-09-05T05:50:01.981Z,4.17
2022-09-05T05:55:50.497Z,4.37
2022-09-05T06:00:28.081Z,5.30
2022-09-05T06:05:36.705Z,5.57
2022-09-05T06:14:56.827Z,4.73
2022-09-05T06:15:59.063Z,7.47
2022-09-05T06:22:10.593Z,4.27
2022-09-05T06:26:22.280Z,4.53
2022-09-05T06:31:36.025Z,4.27
2022-09-05T06:36:46.731Z,3.93
2022-09-05T06:41:57.492Z,5.30
2022-09-05T06:47:30.240Z,5.63
2022-09-05T06:52:29.048Z,3.90
2022-09-05T06:57:43.869Z,3.40
2022-09-05T07:02:59.871Z,3.17
2022-09-05T07:08:13.595Z,3.53
2022-09-05T07:13:15.159Z,5.00
2022-09-05T07:18:26.499Z,3.97
2022-09-05T07:24:06.887Z,4.70
2022-09-05T07:28:52.167Z,4.70
2022-09-05T07:34:02.927Z,2.87
2022-09-05T07:39:28.287Z,5.03
2022-09-05T07:44:32.134Z,5.07
2022-09-05T07:50:47.185Z,2.83
2022-09-05T07:57:06.511Z,3.23
2022-09-05T08:00:25.987Z,2.20
2022-09-05T08:05:34.429Z,2.57
2022-09-05T08:11:22.346Z,3.00
2022-09-05T08:16:02.916Z,3.17
2022-09-05T08:21:04.746Z,5.63
2022-09-05T08:26:15.773Z,3.50
2022-09-05T08:31:26.204Z,3.60
2022-09-05T08:36:36.425Z,2.47
2022-09-05T08:42:03.375Z,2.37
2022-09-05T08:47:12.333Z,3.43
2022-09-05T08:52:23.389Z,3.27
2022-09-05T08:57:35.079Z,3.73
2022-09-05T09:02:54.585Z,4.00
2022-09-05T09:08:05.201Z,4.13
2022-09-05T09:13:18.486Z,5.37
2022-09-05T09:18:31.846Z,2.27
2022-09-05T09:23:39.472Z,4.27
2022-09-05T09:28:51.713Z,3.17
2022-09-05T09:34:02.002Z,5.30
2022-09-05T09:39:38.249Z,3.07
2022-09-05T09:44:35.052Z,4.83
2022-09-05T09:49:44.489Z,3.70
2022-09-05T09:54:57.995Z,4.60
2022-09-05T10:00:08.836Z,4.93
2022-09-05T10:10:34.237Z,4.40
2022-09-05T10:11:05.447Z,4.80
2022-09-05T10:15:47.447Z,3.00
2022-09-05T10:21:16.078Z,3.13
2022-09-05T10:26:10.758Z,7.40
2022-09-05T10:33:03.806Z,6.80
2022-09-05T10:36:33.084Z,5.30
2022-09-05T10:41:43.650Z,6.13
2022-09-05T10:46:54.389Z,4.97
2022-09-05T10:52:18.236Z,7.97
2022-09-05T10:57:22.944Z,6.87
2022-09-05T11:02:36.692Z,6.40
2022-09-05T11:07:45.269Z,8.77
2022-09-05T11:12:57.618Z,7.13
2022-09-05T11:18:09.867Z,5.17
2022-09-05T11:23:21.638Z,9.00
2022-09-05T11:28:32.791Z,7.93
2022-09-05T11:39:52.945Z,9.47
2022-09-05T11:40:03.625Z,4.23
2022-09-05T11:44:24.953Z,9.27
2022-09-05T11:49:23.795Z,8.30
2022-09-05T11:54:34.102Z,7.60
2022-09-05T11:59:44.946Z,9.40
2022-09-05T12:05:48.409Z,7.50
2022-09-05T12:10:08.091Z,6.50
2022-09-05T12:15:21.008Z,6.30
2022-09-05T12:20:43.205Z,10.10
2022-09-05T12:27:36.396Z,9.90
2022-09-05T12:31:57.223Z,8.47
2022-09-05T12:40:15.794Z,7.83
2022-09-05T12:41:44.464Z,6.33
2022-09-05T12:46:31.048Z,7.10
2022-09-05T12:51:45.854Z,9.90
2022-09-05T13:00:13.880Z,6.83
2022-09-05T13:03:09.051Z,10.23
2022-09-05T13:07:21.389Z,6.60
2022-09-05T13:14:58.834Z,7.97
2022-09-05T13:17:44.783Z,7.80
2022-09-05T13:22:54.525Z,10.83
2022-09-05T13:28:05.307Z,11.10
2022-09-05T13:37:55.666Z,12.23
2022-09-05T13:38:47.692Z,6.50
2022-09-05T13:43:38.573Z,5.53
2022-09-05T13:54:01.577Z,6.13
2022-09-05T13:59:12.147Z,9.83
2022-09-05T14:09:37.077Z,6.87
2022-09-05T14:19:55.149Z,8.27
2022-09-05T14:25:04.247Z,7.93
2022-09-05T14:30:42.739Z,10.30
2022-09-05T14:37:49.873Z,10.33
2022-09-05T14:40:36.637Z,6.50
2022-09-05T14:45:46.724Z,10.43
2022-09-05T14:50:59.581Z,11.23
2022-09-05T14:56:50.215Z,6.73
2022-09-05T15:02:51.665Z,10.07
2022-09-05T15:06:33.330Z,6.93
2022-09-05T15:12:20.965Z,8.50
2022-09-05T15:16:50.576Z,9.70
2022-09-05T15:21:57.986Z,8.60
2022-09-05T15:27:05.615Z,5.53
2022-09-05T15:32:13.816Z,8.00
2022-09-05T15:37:23.793Z,9.00
2022-09-05T15:42:33.880Z,10.17
2022-09-05T15:47:43.909Z,11.23
2022-09-05T15:52:55.200Z,9.70
2022-09-05T15:58:05.012Z,11.17
2022-09-05T16:04:54.976Z,5.67
2022-09-05T16:10:41.776Z,10.73
2022-09-05T16:13:52.976Z,13.00
2022-09-05T16:23:18.433Z,12.27
2022-09-05T16:24:05.634Z,8.90
2022-09-05T16:29:13.478Z,13.33
2022-09-05T16:34:23.341Z,14.40
2022-09-05T16:39:32.626Z,14.77
2022-09-05T16:44:42.526Z,7.83
2022-09-05T16:49:56.342Z,12.00
2022-09-05T16:55:03.908Z,12.60
2022-09-05T17:00:11.785Z,7.07
2022-09-05T17:05:22.077Z,10.20
2022-09-05T17:10:32.073Z,11.77
2022-09-05T17:15:51.562Z,7.63
2022-09-05T17:20:53.831Z,6.17
2022-09-05T17:29:30.257Z,11.70
2022-09-05T17:36:33.560Z,8.47
2022-09-05T17:41:40.827Z,5.60
2022-09-05T17:46:51.441Z,6.30
2022-09-05T17:51:59.712Z,7.00
2022-09-05T17:57:10.022Z,7.63
2022-09-05T18:02:18.894Z,6.83
2022-09-05T18:07:26.978Z,7.47
2022-09-05T18:13:13.625Z,8.53
2022-09-05T18:17:47.247Z,7.07
2022-09-05T18:23:26.421Z,5.10
2022-09-05T18:28:08.638Z,6.30
2022-09-05T18:33:54.613Z,5.77
2022-09-05T18:38:51.272Z,4.40
2022-09-05T18:43:41.440Z,4.37
2022-09-05T18:50:00.318Z,5.93
2022-09-05T18:54:03.803Z,5.83
2022-09-05T18:59:14.623Z,6.00
2022-09-05T19:04:39.210Z,6.67
2022-09-05T19:09:36.825Z,8.70
2022-09-05T19:14:45.048Z,6.60
2022-09-05T19:20:12.645Z,6.00
2022-09-05T19:25:04.429Z,9.07
2022-09-05T19:36:45.997Z,9.57
2022-09-05T19:36:49.644Z,5.07
2022-09-05T19:47:45.144Z,5.07
2022-09-05T19:47:50.494Z,6.87
2022-09-05T19:50:57.662Z,10.00
2022-09-05T19:56:05.936Z,11.60
2022-09-05T20:01:16.169Z,6.07
2022-09-05T20:06:30.053Z,7.97
2022-09-05T20:11:46.389Z,8.53
2022-09-05T20:16:49.671Z,12.27
2022-09-05T20:21:57.298Z,6.63
2022-09-05T20:27:05.227Z,6.53
2022-09-05T20:32:15.374Z,10.90
2022-09-05T20:43:16.510Z,7.27
2022-09-05T20:43:22.291Z,9.53
2022-09-05T20:54:12.840Z,13.07
2022-09-05T20:54:20.154Z,7.93
2022-09-05T20:58:10.974Z,7.17
2022-09-05T21:03:21.072Z,6.20
2022-09-05T21:08:32.349Z,8.47
2022-09-05T21:13:52.296Z,8.53
2022-09-05T21:18:52.319Z,8.53
2022-09-05T21:24:08.902Z,9.23
2022-09-05T21:29:11.878Z,8.30
2022-09-05T21:34:21.797Z,7.83
2022-09-05T21:39:33.009Z,9.30
2022-09-05T21:47:42.729Z,10.30
2022-09-05T21:49:49.917Z,7.37
2022-09-05T21:59:14.781Z,9.60
2022-09-05T22:00:11.124Z,8.23
2022-09-05T22:05:22.338Z,6.17
2022-09-05T22:10:37.054Z,5.70
2022-09-05T22:15:39.813Z,8.40
2022-09-05T22:20:51.840Z,6.57
2022-09-05T22:26:00.928Z,9.00
2022-09-05T22:31:08.217Z,7.83
2022-09-05T22:36:15.190Z,7.73
2022-09-05T22:41:30.043Z,5.27
2022-09-05T22:46:32.165Z,10.83
2022-09-05T22:51:39.091Z,8.53
2022-09-05T22:56:46.118Z,5.17
2022-09-05T23:01:53.240Z,6.93
2022-09-05T23:07:03.277Z,9.63
2022-09-05T23:12:10.250Z,5.90
2022-09-05T23:17:17.513Z,9.13
2022-09-05T23:22:24.672Z,7.67
2022-09-05T23:27:34.903Z,7.60
2022-09-05T23:32:44.963Z,11.80
2022-09-05T23:37:51.857Z,9.90
2022-09-05T23:43:01.497Z,9.13
2022-09-05T23:48:08.454Z,6.03
2022-09-05T23:53:15.833Z,9.40
2022-09-05T23:58:23.186Z,11.37
